sensor_id;sensor_type;location;lat;lon;timestamp;temperature;humidity
11454;DHT22;5783;55.174;61.310;2023-06-26T00:02:17;23.30;50.20
11454;DHT22;5783;55.174;61.310;2023-06-26T00:04:46;23.30;50.20
11454;DHT22;5783;55.174;61.310;2023-06-26T00:07:15;23.30;50.20
11454;DHT22;5783;55.174;61.310;2023-06-26T00:09:44;23.30;50.30
11454;DHT22;5783;55.174;61.310;2023-06-26T00:12:14;23.30;50.30
11454;DHT22;5783;55.174;61.310;2023-06-26T00:14:43;23.30;50.30
11454;DHT22;5783;55.174;61.310;2023-06-26T00:17:12;23.30;50.30
11454;DHT22;5783;55.174;61.310;2023-06-26T00:19:41;23.30;50.40
11454;DHT22;5783;55.174;61.310;2023-06-26T00:22:11;23.30;50.40
11454;DHT22;5783;55.174;61.310;2023-06-26T00:24:40;23.30;50.50
11454;DHT22;5783;55.174;61.310;2023-06-26T00:27:11;23.30;50.40
11454;DHT22;5783;55.174;61.310;2023-06-26T00:29:40;23.30;50.40
11454;DHT22;5783;55.174;61.310;2023-06-26T00:32:09;23.30;50.40
11454;DHT22;5783;55.174;61.310;2023-06-26T00:34:38;23.30;50.40
11454;DHT22;5783;55.174;61.310;2023-06-26T00:37:08;23.30;50.40
11454;DHT22;5783;55.174;61.310;2023-06-26T00:39:37;23.30;50.50
11454;DHT22;5783;55.174;61.310;2023-06-26T00:42:07;23.30;50.50
11454;DHT22;5783;55.174;61.310;2023-06-26T00:44:36;23.30;50.50
11454;DHT22;5783;55.174;61.310;2023-06-26T00:47:06;23.20;50.50
11454;DHT22;5783;55.174;61.310;2023-06-26T00:49:35;23.20;50.50
11454;DHT22;5783;55.174;61.310;2023-06-26T00:52:05;23.20;50.50
11454;DHT22;5783;55.174;61.310;2023-06-26T00:54:34;23.20;50.50
11454;DHT22;5783;55.174;61.310;2023-06-26T00:57:04;23.20;50.50
11454;DHT22;5783;55.174;61.310;2023-06-26T00:59:34;23.20;50.60
11454;DHT22;5783;55.174;61.310;2023-06-26T01:02:04;23.20;50.70
11454;DHT22;5783;55.174;61.310;2023-06-26T01:04:34;23.20;50.70
11454;DHT22;5783;55.174;61.310;2023-06-26T01:07:04;23.20;50.80
11454;DHT22;5783;55.174;61.310;2023-06-26T01:09:34;23.20;50.80
11454;DHT22;5783;55.174;61.310;2023-06-26T01:12:04;23.20;50.80
11454;DHT22;5783;55.174;61.310;2023-06-26T01:14:34;23.20;50.80
11454;DHT22;5783;55.174;61.310;2023-06-26T01:17:04;23.20;50.80
11454;DHT22;5783;55.174;61.310;2023-06-26T01:19:33;23.20;50.80
11454;DHT22;5783;55.174;61.310;2023-06-26T01:24:38;23.20;50.90
11454;DHT22;5783;55.174;61.310;2023-06-26T01:27:08;23.20;50.90
11454;DHT22;5783;55.174;61.310;2023-06-26T01:29:39;23.20;50.90
11454;DHT22;5783;55.174;61.310;2023-06-26T01:32:09;23.20;51.00
11454;DHT22;5783;55.174;61.310;2023-06-26T01:34:38;23.20;50.90
11454;DHT22;5783;55.174;61.310;2023-06-26T01:37:08;23.20;50.90
11454;DHT22;5783;55.174;61.310;2023-06-26T01:39:37;23.20;51.70
11454;DHT22;5783;55.174;61.310;2023-06-26T01:42:06;23.20;51.00
11454;DHT22;5783;55.174;61.310;2023-06-26T01:44:39;23.20;51.00
11454;DHT22;5783;55.174;61.310;2023-06-26T01:47:10;23.20;51.10
11454;DHT22;5783;55.174;61.310;2023-06-26T01:56:00;23.10;51.10
11454;DHT22;5783;55.174;61.310;2023-06-26T01:58:30;23.20;51.30
11454;DHT22;5783;55.174;61.310;2023-06-26T02:01:01;23.10;51.20
11454;DHT22;5783;55.174;61.310;2023-06-26T02:03:30;23.10;51.20
11454;DHT22;5783;55.174;61.310;2023-06-26T02:06:00;23.10;51.20
11454;DHT22;5783;55.174;61.310;2023-06-26T02:08:29;23.10;51.20
11454;DHT22;5783;55.174;61.310;2023-06-26T02:10:59;23.20;51.40
11454;DHT22;5783;55.174;61.310;2023-06-26T02:13:29;23.20;51.30
11454;DHT22;5783;55.174;61.310;2023-06-26T02:15:58;23.20;51.20
11454;DHT22;5783;55.174;61.310;2023-06-26T02:18:27;23.20;51.30
11454;DHT22;5783;55.174;61.310;2023-06-26T02:20:56;23.20;51.30
11454;DHT22;5783;55.174;61.310;2023-06-26T02:23:26;23.20;51.30
11454;DHT22;5783;55.174;61.310;2023-06-26T02:25:55;23.20;51.30
11454;DHT22;5783;55.174;61.310;2023-06-26T02:28:25;23.20;51.40
11454;DHT22;5783;55.174;61.310;2023-06-26T02:30:54;23.20;51.40
11454;DHT22;5783;55.174;61.310;2023-06-26T02:33:23;23.20;51.30
11454;DHT22;5783;55.174;61.310;2023-06-26T02:35:52;23.20;51.30
11454;DHT22;5783;55.174;61.310;2023-06-26T02:38:21;23.20;51.50
11454;DHT22;5783;55.174;61.310;2023-06-26T02:40:50;23.20;51.40
11454;DHT22;5783;55.174;61.310;2023-06-26T02:43:20;23.20;51.50
11454;DHT22;5783;55.174;61.310;2023-06-26T02:45:49;23.30;51.50
11454;DHT22;5783;55.174;61.310;2023-06-26T02:48:18;23.20;51.50
11454;DHT22;5783;55.174;61.310;2023-06-26T02:50:47;23.30;51.50
11454;DHT22;5783;55.174;61.310;2023-06-26T02:53:16;23.30;51.40
11454;DHT22;5783;55.174;61.310;2023-06-26T02:55:45;23.30;51.40
11454;DHT22;5783;55.174;61.310;2023-06-26T02:58:15;23.30;51.50
11454;DHT22;5783;55.174;61.310;2023-06-26T03:00:45;23.20;51.50
11454;DHT22;5783;55.174;61.310;2023-06-26T03:03:15;23.20;51.30
11454;DHT22;5783;55.174;61.310;2023-06-26T03:05:44;23.20;51.40
11454;DHT22;5783;55.174;61.310;2023-06-26T03:08:13;23.20;51.40
11454;DHT22;5783;55.174;61.310;2023-06-26T03:10:42;23.20;51.40
11454;DHT22;5783;55.174;61.310;2023-06-26T03:13:11;23.20;51.40
11454;DHT22;5783;55.174;61.310;2023-06-26T03:15:41;23.20;51.40
11454;DHT22;5783;55.174;61.310;2023-06-26T03:18:10;23.20;51.40
11454;DHT22;5783;55.174;61.310;2023-06-26T03:20:39;23.20;51.40
11454;DHT22;5783;55.174;61.310;2023-06-26T03:23:08;23.20;51.30
11454;DHT22;5783;55.174;61.310;2023-06-26T03:25:37;23.20;51.40
11454;DHT22;5783;55.174;61.310;2023-06-26T03:28:06;23.20;51.40
11454;DHT22;5783;55.174;61.310;2023-06-26T03:30:35;23.20;51.40
11454;DHT22;5783;55.174;61.310;2023-06-26T03:33:05;23.20;51.70
11454;DHT22;5783;55.174;61.310;2023-06-26T03:35:34;23.20;51.50
11454;DHT22;5783;55.174;61.310;2023-06-26T03:38:04;23.20;51.60
11454;DHT22;5783;55.174;61.310;2023-06-26T03:40:35;23.20;51.60
11454;DHT22;5783;55.174;61.310;2023-06-26T03:43:04;23.20;51.70
11454;DHT22;5783;55.174;61.310;2023-06-26T03:45:33;23.20;51.70
11454;DHT22;5783;55.174;61.310;2023-06-26T03:48:02;23.20;51.80
11454;DHT22;5783;55.174;61.310;2023-06-26T03:50:32;23.20;51.80
11454;DHT22;5783;55.174;61.310;2023-06-26T03:53:01;23.20;51.80
11454;DHT22;5783;55.174;61.310;2023-06-26T03:55:33;23.20;51.80
11454;DHT22;5783;55.174;61.310;2023-06-26T03:58:02;23.20;51.80
11454;DHT22;5783;55.174;61.310;2023-06-26T04:00:31;23.20;51.80
11454;DHT22;5783;55.174;61.310;2023-06-26T04:03:00;23.20;51.80
11454;DHT22;5783;55.174;61.310;2023-06-26T04:05:30;23.20;51.80
11454;DHT22;5783;55.174;61.310;2023-06-26T04:07:59;23.20;51.80
11454;DHT22;5783;55.174;61.310;2023-06-26T04:10:29;23.20;51.80
11454;DHT22;5783;55.174;61.310;2023-06-26T04:12:58;23.20;51.70
11454;DHT22;5783;55.174;61.310;2023-06-26T04:15:27;23.20;51.80
11454;DHT22;5783;55.174;61.310;2023-06-26T04:17:56;23.20;51.90
11454;DHT22;5783;55.174;61.310;2023-06-26T04:20:25;23.20;51.80
11454;DHT22;5783;55.174;61.310;2023-06-26T04:22:55;23.20;51.90
11454;DHT22;5783;55.174;61.310;2023-06-26T04:25:24;23.20;51.90
11454;DHT22;5783;55.174;61.310;2023-06-26T04:27:54;23.20;51.90
11454;DHT22;5783;55.174;61.310;2023-06-26T04:30:24;23.20;51.80
11454;DHT22;5783;55.174;61.310;2023-06-26T04:32:53;23.20;51.80
11454;DHT22;5783;55.174;61.310;2023-06-26T04:35:24;23.20;51.90
11454;DHT22;5783;55.174;61.310;2023-06-26T04:37:53;23.20;51.80
11454;DHT22;5783;55.174;61.310;2023-06-26T04:40:22;23.20;51.80
11454;DHT22;5783;55.174;61.310;2023-06-26T04:42:51;23.20;51.90
11454;DHT22;5783;55.174;61.310;2023-06-26T04:45:20;23.20;51.90
11454;DHT22;5783;55.174;61.310;2023-06-26T04:47:50;23.20;51.90
11454;DHT22;5783;55.174;61.310;2023-06-26T04:50:19;23.20;52.60
11454;DHT22;5783;55.174;61.310;2023-06-26T04:52:48;23.10;52.80
11454;DHT22;5783;55.174;61.310;2023-06-26T04:55:18;23.00;53.20
11454;DHT22;5783;55.174;61.310;2023-06-26T04:57:49;22.90;53.40
11454;DHT22;5783;55.174;61.310;2023-06-26T05:00:19;22.90;53.50
11454;DHT22;5783;55.174;61.310;2023-06-26T05:02:49;22.90;53.80
11454;DHT22;5783;55.174;61.310;2023-06-26T05:05:20;22.90;53.80
11454;DHT22;5783;55.174;61.310;2023-06-26T05:07:49;22.90;54.10
11454;DHT22;5783;55.174;61.310;2023-06-26T05:10:18;22.90;54.80
11454;DHT22;5783;55.174;61.310;2023-06-26T05:12:47;23.00;55.30
11454;DHT22;5783;55.174;61.310;2023-06-26T05:15:16;23.00;55.00
11454;DHT22;5783;55.174;61.310;2023-06-26T05:17:46;23.10;54.80
11454;DHT22;5783;55.174;61.310;2023-06-26T05:20:15;23.10;55.00
11454;DHT22;5783;55.174;61.310;2023-06-26T05:22:44;23.10;54.80
11454;DHT22;5783;55.174;61.310;2023-06-26T05:25:15;23.10;54.80
11454;DHT22;5783;55.174;61.310;2023-06-26T05:27:49;23.10;54.50
11454;DHT22;5783;55.174;61.310;2023-06-26T05:30:19;23.10;54.40
11454;DHT22;5783;55.174;61.310;2023-06-26T05:32:49;23.10;54.80
11454;DHT22;5783;55.174;61.310;2023-06-26T05:35:21;23.10;54.70
11454;DHT22;5783;55.174;61.310;2023-06-26T05:37:50;23.00;54.80
11454;DHT22;5783;55.174;61.310;2023-06-26T05:40:20;23.00;54.70
11454;DHT22;5783;55.174;61.310;2023-06-26T05:42:49;23.00;54.40
11454;DHT22;5783;55.174;61.310;2023-06-26T05:45:19;23.00;54.40
11454;DHT22;5783;55.174;61.310;2023-06-26T05:47:48;23.00;54.40
11454;DHT22;5783;55.174;61.310;2023-06-26T05:50:18;23.00;54.40
11454;DHT22;5783;55.174;61.310;2023-06-26T05:52:48;23.00;54.50
11454;DHT22;5783;55.174;61.310;2023-06-26T05:55:17;23.00;54.50
11454;DHT22;5783;55.174;61.310;2023-06-26T05:57:47;23.00;54.90
11454;DHT22;5783;55.174;61.310;2023-06-26T06:00:17;22.90;54.90
11454;DHT22;5783;55.174;61.310;2023-06-26T06:02:46;22.90;54.80
11454;DHT22;5783;55.174;61.310;2023-06-26T06:05:15;22.90;54.50
11454;DHT22;5783;55.174;61.310;2023-06-26T06:07:45;22.90;54.50
11454;DHT22;5783;55.174;61.310;2023-06-26T06:10:14;22.90;54.50
11454;DHT22;5783;55.174;61.310;2023-06-26T06:13:02;23.00;54.40
11454;DHT22;5783;55.174;61.310;2023-06-26T06:15:32;23.00;53.90
11454;DHT22;5783;55.174;61.310;2023-06-26T06:18:01;23.10;53.50
11454;DHT22;5783;55.174;61.310;2023-06-26T06:20:30;23.10;53.30
11454;DHT22;5783;55.174;61.310;2023-06-26T06:22:59;23.20;53.20
11454;DHT22;5783;55.174;61.310;2023-06-26T06:25:28;23.20;53.00
11454;DHT22;5783;55.174;61.310;2023-06-26T06:27:57;23.20;53.70
11454;DHT22;5783;55.174;61.310;2023-06-26T06:30:27;23.10;53.70
11454;DHT22;5783;55.174;61.310;2023-06-26T06:32:56;23.10;53.50
11454;DHT22;5783;55.174;61.310;2023-06-26T06:35:25;23.00;53.60
11454;DHT22;5783;55.174;61.310;2023-06-26T06:37:54;23.00;53.50
11454;DHT22;5783;55.174;61.310;2023-06-26T06:40:23;23.10;53.00
11454;DHT22;5783;55.174;61.310;2023-06-26T06:42:52;23.10;52.60
11454;DHT22;5783;55.174;61.310;2023-06-26T06:45:22;23.20;52.40
11454;DHT22;5783;55.174;61.310;2023-06-26T06:47:51;23.20;52.20
11454;DHT22;5783;55.174;61.310;2023-06-26T06:50:20;23.30;52.10
11454;DHT22;5783;55.174;61.310;2023-06-26T06:52:49;23.30;51.90
11454;DHT22;5783;55.174;61.310;2023-06-26T06:55:18;23.30;51.90
11454;DHT22;5783;55.174;61.310;2023-06-26T06:57:47;23.40;51.80
11454;DHT22;5783;55.174;61.310;2023-06-26T07:00:17;23.40;51.60
11454;DHT22;5783;55.174;61.310;2023-06-26T07:02:46;23.40;51.60
11454;DHT22;5783;55.174;61.310;2023-06-26T07:05:16;23.40;51.40
11454;DHT22;5783;55.174;61.310;2023-06-26T07:07:46;23.50;51.40
11454;DHT22;5783;55.174;61.310;2023-06-26T07:10:15;23.50;51.40
11454;DHT22;5783;55.174;61.310;2023-06-26T07:12:44;23.50;51.90
11454;DHT22;5783;55.174;61.310;2023-06-26T07:15:13;23.50;53.70
11454;DHT22;5783;55.174;61.310;2023-06-26T07:17:43;23.40;53.90
11454;DHT22;5783;55.174;61.310;2023-06-26T07:20:13;23.40;53.90
11454;DHT22;5783;55.174;61.310;2023-06-26T07:22:42;23.30;54.30
11454;DHT22;5783;55.174;61.310;2023-06-26T07:25:12;23.20;54.50
11454;DHT22;5783;55.174;61.310;2023-06-26T07:27:42;23.20;55.10
11454;DHT22;5783;55.174;61.310;2023-06-26T07:30:11;23.20;55.50
11454;DHT22;5783;55.174;61.310;2023-06-26T07:32:40;23.20;55.10
11454;DHT22;5783;55.174;61.310;2023-06-26T07:35:10;23.10;55.40
11454;DHT22;5783;55.174;61.310;2023-06-26T07:37:39;23.10;55.30
11454;DHT22;5783;55.174;61.310;2023-06-26T07:40:09;23.10;55.00
11454;DHT22;5783;55.174;61.310;2023-06-26T07:42:39;23.20;54.40
11454;DHT22;5783;55.174;61.310;2023-06-26T07:45:09;23.20;53.60
11454;DHT22;5783;55.174;61.310;2023-06-26T07:47:39;23.30;53.20
11454;DHT22;5783;55.174;61.310;2023-06-26T07:50:08;23.30;52.90
11454;DHT22;5783;55.174;61.310;2023-06-26T07:52:37;23.30;52.60
11454;DHT22;5783;55.174;61.310;2023-06-26T07:55:07;23.40;52.50
11454;DHT22;5783;55.174;61.310;2023-06-26T07:57:36;23.40;52.40
11454;DHT22;5783;55.174;61.310;2023-06-26T08:00:07;23.50;52.30
11454;DHT22;5783;55.174;61.310;2023-06-26T08:02:37;23.50;52.30
11454;DHT22;5783;55.174;61.310;2023-06-26T08:05:06;23.50;52.20
11454;DHT22;5783;55.174;61.310;2023-06-26T08:07:35;23.50;52.20
11454;DHT22;5783;55.174;61.310;2023-06-26T08:10:05;23.50;52.10
11454;DHT22;5783;55.174;61.310;2023-06-26T08:12:34;23.60;52.10
11454;DHT22;5783;55.174;61.310;2023-06-26T08:15:05;23.60;52.10
11454;DHT22;5783;55.174;61.310;2023-06-26T08:17:35;23.50;54.10
11454;DHT22;5783;55.174;61.310;2023-06-26T08:20:05;23.40;54.00
11454;DHT22;5783;55.174;61.310;2023-06-26T08:22:54;23.40;53.90
11454;DHT22;5783;55.174;61.310;2023-06-26T08:25:23;23.30;54.20
11454;DHT22;5783;55.174;61.310;2023-06-26T08:27:52;23.30;54.40
11454;DHT22;5783;55.174;61.310;2023-06-26T08:30:22;23.30;55.00
11454;DHT22;5783;55.174;61.310;2023-06-26T08:32:53;23.20;54.80
11454;DHT22;5783;55.174;61.310;2023-06-26T08:35:23;23.20;54.60
11454;DHT22;5783;55.174;61.310;2023-06-26T08:37:52;23.20;54.90
11454;DHT22;5783;55.174;61.310;2023-06-26T08:40:21;23.20;54.80
11454;DHT22;5783;55.174;61.310;2023-06-26T08:42:50;23.10;55.10
11454;DHT22;5783;55.174;61.310;2023-06-26T08:45:20;23.10;55.00
11454;DHT22;5783;55.174;61.310;2023-06-26T08:47:51;23.00;55.40
11454;DHT22;5783;55.174;61.310;2023-06-26T08:50:23;23.00;55.60
11454;DHT22;5783;55.174;61.310;2023-06-26T08:55:43;23.00;55.20
11454;DHT22;5783;55.174;61.310;2023-06-26T08:58:13;22.90;55.20
11454;DHT22;5783;55.174;61.310;2023-06-26T09:00:43;23.00;55.20
11454;DHT22;5783;55.174;61.310;2023-06-26T09:03:13;22.90;55.40
11454;DHT22;5783;55.174;61.310;2023-06-26T09:05:42;22.90;55.10
11454;DHT22;5783;55.174;61.310;2023-06-26T09:08:11;23.00;54.80
11454;DHT22;5783;55.174;61.310;2023-06-26T09:10:41;23.00;54.50
11454;DHT22;5783;55.174;61.310;2023-06-26T09:13:10;23.00;54.60
11454;DHT22;5783;55.174;61.310;2023-06-26T09:18:29;22.90;54.70
11454;DHT22;5783;55.174;61.310;2023-06-26T09:21:00;22.90;55.10
11454;DHT22;5783;55.174;61.310;2023-06-26T09:23:31;23.00;55.00
11454;DHT22;5783;55.174;61.310;2023-06-26T09:28:52;22.90;55.70
11454;DHT22;5783;55.174;61.310;2023-06-26T09:31:23;22.90;55.70
11454;DHT22;5783;55.174;61.310;2023-06-26T09:36:43;22.80;55.40
11454;DHT22;5783;55.174;61.310;2023-06-26T09:39:13;22.80;55.60
11454;DHT22;5783;55.174;61.310;2023-06-26T09:41:43;22.80;55.50
11454;DHT22;5783;55.174;61.310;2023-06-26T09:44:14;22.80;55.70
11454;DHT22;5783;55.174;61.310;2023-06-26T09:46:45;22.80;55.50
11454;DHT22;5783;55.174;61.310;2023-06-26T09:49:15;22.80;55.50
11454;DHT22;5783;55.174;61.310;2023-06-26T09:51:44;22.70;55.50
11454;DHT22;5783;55.174;61.310;2023-06-26T09:54:15;22.70;55.50
11454;DHT22;5783;55.174;61.310;2023-06-26T09:56:45;22.70;55.70
11454;DHT22;5783;55.174;61.310;2023-06-26T09:59:14;22.70;55.40
11454;DHT22;5783;55.174;61.310;2023-06-26T10:01:46;22.70;55.40
11454;DHT22;5783;55.174;61.310;2023-06-26T10:04:15;22.70;55.90
11454;DHT22;5783;55.174;61.310;2023-06-26T10:06:46;22.70;55.90
11454;DHT22;5783;55.174;61.310;2023-06-26T10:09:17;22.70;55.60
11454;DHT22;5783;55.174;61.310;2023-06-26T10:12:06;22.70;55.50
11454;DHT22;5783;55.174;61.310;2023-06-26T10:14:37;22.70;55.30
11454;DHT22;5783;55.174;61.310;2023-06-26T10:17:10;22.70;55.60
11454;DHT22;5783;55.174;61.310;2023-06-26T10:19:43;22.70;55.50
11454;DHT22;5783;55.174;61.310;2023-06-26T10:22:15;22.70;55.70
11454;DHT22;5783;55.174;61.310;2023-06-26T10:24:47;22.70;56.30
11454;DHT22;5783;55.174;61.310;2023-06-26T10:27:19;22.60;55.60
11454;DHT22;5783;55.174;61.310;2023-06-26T10:32:58;22.60;55.70
11454;DHT22;5783;55.174;61.310;2023-06-26T10:35:30;22.60;56.30
11454;DHT22;5783;55.174;61.310;2023-06-26T10:38:19;22.50;56.50
11454;DHT22;5783;55.174;61.310;2023-06-26T10:40:48;22.50;56.60
11454;DHT22;5783;55.174;61.310;2023-06-26T10:43:18;22.40;56.50
11454;DHT22;5783;55.174;61.310;2023-06-26T10:45:49;22.40;56.60
11454;DHT22;5783;55.174;61.310;2023-06-26T10:51:28;22.40;56.80
11454;DHT22;5783;55.174;61.310;2023-06-26T10:53:58;22.40;56.90
11454;DHT22;5783;55.174;61.310;2023-06-26T10:59:39;22.40;56.60
11454;DHT22;5783;55.174;61.310;2023-06-26T11:02:08;22.40;56.70
11454;DHT22;5783;55.174;61.310;2023-06-26T11:04:59;22.40;56.50
11454;DHT22;5783;55.174;61.310;2023-06-26T11:07:28;22.30;56.80
11454;DHT22;5783;55.174;61.310;2023-06-26T11:12:47;22.40;56.50
11454;DHT22;5783;55.174;61.310;2023-06-26T11:15:19;22.40;56.50
11454;DHT22;5783;55.174;61.310;2023-06-26T11:17:49;22.30;56.50
11454;DHT22;5783;55.174;61.310;2023-06-26T11:20:18;22.30;56.70
11454;DHT22;5783;55.174;61.310;2023-06-26T11:22:49;22.40;56.70
11454;DHT22;5783;55.174;61.310;2023-06-26T11:25:20;22.40;56.60
11454;DHT22;5783;55.174;61.310;2023-06-26T11:27:49;22.40;56.10
11454;DHT22;5783;55.174;61.310;2023-06-26T11:30:38;22.30;56.00
11454;DHT22;5783;55.174;61.310;2023-06-26T11:33:09;22.30;56.20
11454;DHT22;5783;55.174;61.310;2023-06-26T11:35:38;22.30;56.50
11454;DHT22;5783;55.174;61.310;2023-06-26T11:38:07;22.30;56.70
11454;DHT22;5783;55.174;61.310;2023-06-26T11:40:37;22.40;56.70
11454;DHT22;5783;55.174;61.310;2023-06-26T11:43:06;22.40;56.60
11454;DHT22;5783;55.174;61.310;2023-06-26T11:45:35;22.40;56.70
11454;DHT22;5783;55.174;61.310;2023-06-26T11:48:04;22.40;56.90
11454;DHT22;5783;55.174;61.310;2023-06-26T11:50:36;22.40;57.00
11454;DHT22;5783;55.174;61.310;2023-06-26T11:53:06;22.30;57.10
11454;DHT22;5783;55.174;61.310;2023-06-26T11:58:27;22.30;57.10
11454;DHT22;5783;55.174;61.310;2023-06-26T12:00:56;22.30;57.00
11454;DHT22;5783;55.174;61.310;2023-06-26T12:03:26;22.30;57.00
11454;DHT22;5783;55.174;61.310;2023-06-26T12:05:55;22.30;57.20
11454;DHT22;5783;55.174;61.310;2023-06-26T12:08:25;22.30;57.30
11454;DHT22;5783;55.174;61.310;2023-06-26T12:10:55;22.30;57.30
11454;DHT22;5783;55.174;61.310;2023-06-26T12:13:25;22.30;57.50
11454;DHT22;5783;55.174;61.310;2023-06-26T12:15:54;22.30;57.60
11454;DHT22;5783;55.174;61.310;2023-06-26T12:18:23;22.30;57.40
11454;DHT22;5783;55.174;61.310;2023-06-26T12:20:52;22.30;57.40
11454;DHT22;5783;55.174;61.310;2023-06-26T12:23:22;22.30;57.40
11454;DHT22;5783;55.174;61.310;2023-06-26T12:25:51;22.20;57.50
11454;DHT22;5783;55.174;61.310;2023-06-26T12:28:20;22.20;57.70
11454;DHT22;5783;55.174;61.310;2023-06-26T12:33:39;22.20;57.70
11454;DHT22;5783;55.174;61.310;2023-06-26T12:39:00;22.20;57.80
11454;DHT22;5783;55.174;61.310;2023-06-26T12:41:29;22.10;57.80
11454;DHT22;5783;55.174;61.310;2023-06-26T12:43:59;22.10;57.80
11454;DHT22;5783;55.174;61.310;2023-06-26T12:46:48;22.20;57.90
11454;DHT22;5783;55.174;61.310;2023-06-26T12:49:18;22.20;57.70
11454;DHT22;5783;55.174;61.310;2023-06-26T12:51:48;22.20;57.70
11454;DHT22;5783;55.174;61.310;2023-06-26T12:54:17;22.20;57.80
11454;DHT22;5783;55.174;61.310;2023-06-26T12:56:46;22.20;57.80
11454;DHT22;5783;55.174;61.310;2023-06-26T12:59:15;22.20;58.10
11454;DHT22;5783;55.174;61.310;2023-06-26T13:01:44;22.20;58.10
11454;DHT22;5783;55.174;61.310;2023-06-26T13:04:14;22.20;57.90
11454;DHT22;5783;55.174;61.310;2023-06-26T13:06:43;22.10;57.90
11454;DHT22;5783;55.174;61.310;2023-06-26T13:09:12;22.10;57.80
11454;DHT22;5783;55.174;61.310;2023-06-26T13:11:41;22.10;58.10
11454;DHT22;5783;55.174;61.310;2023-06-26T13:14:11;22.10;58.30
11454;DHT22;5783;55.174;61.310;2023-06-26T13:16:42;22.10;58.00
11454;DHT22;5783;55.174;61.310;2023-06-26T13:19:11;22.10;58.10
11454;DHT22;5783;55.174;61.310;2023-06-26T13:21:40;22.10;58.10
11454;DHT22;5783;55.174;61.310;2023-06-26T13:24:09;22.10;57.90
11454;DHT22;5783;55.174;61.310;2023-06-26T13:26:39;22.10;58.00
11454;DHT22;5783;55.174;61.310;2023-06-26T13:29:08;22.10;58.10
11454;DHT22;5783;55.174;61.310;2023-06-26T13:31:38;22.10;58.40
11454;DHT22;5783;55.174;61.310;2023-06-26T13:34:07;22.10;58.50
11454;DHT22;5783;55.174;61.310;2023-06-26T13:36:36;22.10;58.60
11454;DHT22;5783;55.174;61.310;2023-06-26T13:39:05;22.10;58.50
11454;DHT22;5783;55.174;61.310;2023-06-26T13:41:35;22.10;58.60
11454;DHT22;5783;55.174;61.310;2023-06-26T13:44:04;22.00;58.60
11454;DHT22;5783;55.174;61.310;2023-06-26T13:46:33;22.00;58.60
11454;DHT22;5783;55.174;61.310;2023-06-26T13:49:02;22.00;58.50
11454;DHT22;5783;55.174;61.310;2023-06-26T13:51:31;22.00;58.60
11454;DHT22;5783;55.174;61.310;2023-06-26T13:54:00;22.00;58.50
11454;DHT22;5783;55.174;61.310;2023-06-26T13:56:30;22.00;58.50
11454;DHT22;5783;55.174;61.310;2023-06-26T13:58:59;22.00;58.60
11454;DHT22;5783;55.174;61.310;2023-06-26T14:01:29;22.00;58.40
11454;DHT22;5783;55.174;61.310;2023-06-26T14:03:58;22.00;58.40
11454;DHT22;5783;55.174;61.310;2023-06-26T14:06:28;22.00;58.40
11454;DHT22;5783;55.174;61.310;2023-06-26T14:08:58;22.00;58.50
11454;DHT22;5783;55.174;61.310;2023-06-26T14:11:28;22.00;59.20
11454;DHT22;5783;55.174;61.310;2023-06-26T14:13:59;22.00;58.90
11454;DHT22;5783;55.174;61.310;2023-06-26T14:16:28;22.00;59.10
11454;DHT22;5783;55.174;61.310;2023-06-26T14:18:58;22.00;58.90
11454;DHT22;5783;55.174;61.310;2023-06-26T14:21:28;22.00;58.60
11454;DHT22;5783;55.174;61.310;2023-06-26T14:23:57;22.00;58.40
11454;DHT22;5783;55.174;61.310;2023-06-26T14:26:27;21.90;58.40
11454;DHT22;5783;55.174;61.310;2023-06-26T14:28:56;21.90;58.60
11454;DHT22;5783;55.174;61.310;2023-06-26T14:31:26;21.90;58.60
11454;DHT22;5783;55.174;61.310;2023-06-26T14:33:55;21.80;58.60
11454;DHT22;5783;55.174;61.310;2023-06-26T14:36:25;21.80;59.20
11454;DHT22;5783;55.174;61.310;2023-06-26T14:38:56;21.70;58.50
11454;DHT22;5783;55.174;61.310;2023-06-26T14:41:26;21.70;58.40
11454;DHT22;5783;55.174;61.310;2023-06-26T14:43:55;21.70;58.30
11454;DHT22;5783;55.174;61.310;2023-06-26T14:46:24;21.70;58.40
11454;DHT22;5783;55.174;61.310;2023-06-26T14:48:53;21.70;58.40
11454;DHT22;5783;55.174;61.310;2023-06-26T14:51:22;21.70;58.50
11454;DHT22;5783;55.174;61.310;2023-06-26T14:53:52;21.70;58.70
11454;DHT22;5783;55.174;61.310;2023-06-26T14:56:22;21.70;58.50
11454;DHT22;5783;55.174;61.310;2023-06-26T14:58:51;21.70;58.50
11454;DHT22;5783;55.174;61.310;2023-06-26T15:01:22;21.60;58.50
11454;DHT22;5783;55.174;61.310;2023-06-26T15:03:51;21.60;58.10
11454;DHT22;5783;55.174;61.310;2023-06-26T15:06:20;21.70;57.80
11454;DHT22;5783;55.174;61.310;2023-06-26T15:08:49;21.80;57.40
11454;DHT22;5783;55.174;61.310;2023-06-26T15:11:19;21.90;57.00
11454;DHT22;5783;55.174;61.310;2023-06-26T15:13:48;22.00;56.70
11454;DHT22;5783;55.174;61.310;2023-06-26T15:16:17;22.10;56.40
11454;DHT22;5783;55.174;61.310;2023-06-26T15:18:46;22.20;56.10
11454;DHT22;5783;55.174;61.310;2023-06-26T15:21:15;22.20;55.80
11454;DHT22;5783;55.174;61.310;2023-06-26T15:23:46;22.30;55.50
11454;DHT22;5783;55.174;61.310;2023-06-26T15:26:16;22.30;55.20
11454;DHT22;5783;55.174;61.310;2023-06-26T15:28:45;22.30;55.00
11454;DHT22;5783;55.174;61.310;2023-06-26T15:31:16;22.40;55.00
11454;DHT22;5783;55.174;61.310;2023-06-26T15:33:46;22.40;54.90
11454;DHT22;5783;55.174;61.310;2023-06-26T15:36:15;22.40;54.60
11454;DHT22;5783;55.174;61.310;2023-06-26T15:38:45;22.40;54.40
11454;DHT22;5783;55.174;61.310;2023-06-26T15:41:15;22.50;54.40
11454;DHT22;5783;55.174;61.310;2023-06-26T15:43:44;22.50;54.40
11454;DHT22;5783;55.174;61.310;2023-06-26T15:46:14;22.50;54.30
11454;DHT22;5783;55.174;61.310;2023-06-26T15:48:43;22.50;54.20
11454;DHT22;5783;55.174;61.310;2023-06-26T15:51:13;22.50;54.10
11454;DHT22;5783;55.174;61.310;2023-06-26T15:53:43;22.50;54.10
11454;DHT22;5783;55.174;61.310;2023-06-26T15:56:12;22.50;54.10
11454;DHT22;5783;55.174;61.310;2023-06-26T15:58:41;22.50;54.00
11454;DHT22;5783;55.174;61.310;2023-06-26T16:01:12;22.60;54.20
11454;DHT22;5783;55.174;61.310;2023-06-26T16:03:42;22.60;54.30
11454;DHT22;5783;55.174;61.310;2023-06-26T16:06:11;22.60;53.80
11454;DHT22;5783;55.174;61.310;2023-06-26T16:08:41;22.60;53.50
11454;DHT22;5783;55.174;61.310;2023-06-26T16:11:12;22.60;53.60
11454;DHT22;5783;55.174;61.310;2023-06-26T16:13:41;22.60;53.50
11454;DHT22;5783;55.174;61.310;2023-06-26T16:16:10;22.60;53.40
11454;DHT22;5783;55.174;61.310;2023-06-26T16:18:41;22.60;53.40
11454;DHT22;5783;55.174;61.310;2023-06-26T16:21:10;22.60;53.30
11454;DHT22;5783;55.174;61.310;2023-06-26T16:23:39;22.60;53.40
11454;DHT22;5783;55.174;61.310;2023-06-26T16:26:08;22.60;53.50
11454;DHT22;5783;55.174;61.310;2023-06-26T16:28:37;22.60;53.40